Terminal Aerodrome Forecast
Issued by NWS

Home | Current Version | Previous Version | Text Only | Print | Product List | Glossary Off
Versions: 1 2 3 4 5 6 7 8 9 10 11 12 13 14 15 16 17 18 19 20 21 22 23 24 25 26

000
FTUS43 KMPX 170029 AAA
TAFRWF
TAF AMD
KRWF 170029Z 1700/1724 06009KT 2SM -TSRA BR SCT015 OVC025CB
      TEMPO 1701/1702 1/2SM +TSRA OVC005CB
     FM170400 28010KT 4SM -SHRA BR OVC007
     FM170700 30015G23KT 3SM -SHRA BR OVC004
     FM171400 31016G25KT 6SM BR VCSH OVC008
     FM171800 31017G26KT P6SM OVC015=

USA.gov is the U.S. government's official web portal to all federal, state and local government web resources and services.